METAR Data
IDs: Format: Raw Decoded Include TAF

Data at: 1437 UTC 10 Aug 2022

KMCC 101415Z AUTO 16008KT 10SM CLR 17/13 A3002 RMK AO2
KMCC 101355Z AUTO 15007KT 10SM CLR 16/13 A3002 RMK AO2
KMCC 101335Z AUTO 16007KT 10SM CLR 16/13 A3001 RMK AO2
KMCC 101315Z AUTO 15009KT 10SM CLR 16/13 A3001 RMK AO2
KMCC 101255Z AUTO 16008KT 10SM CLR 16/13 A3000 RMK AO2
KMCC 101235Z AUTO 15009KT 10SM CLR 16/13 A3000 RMK AO2
KMCC 101215Z AUTO 15008KT 10SM CLR 16/13 A2999 RMK AO2
KMCC 101155Z AUTO 14009KT 10SM CLR 16/13 A2999 RMK AO2
KMCC 101135Z AUTO 15007KT 10SM FEW030 FEW039 16/13 A2999 RMK AO2
KMCC 101115Z AUTO 14008KT 10SM FEW029 FEW037 SCT043 16/13 A2999 RMK AO2
KMCC 101055Z AUTO 14007KT 10SM FEW038 FEW045 16/13 A2999 RMK AO2
KMCC 101035Z AUTO 14007KT 10SM FEW042 17/13 A2999 RMK AO2
KMCC 101015Z AUTO 14008KT 10SM CLR 17/13 A2998 RMK AO2
KMCC 100955Z AUTO 14008KT 10SM CLR 17/13 A2999 RMK AO2
KMCC 100935Z AUTO 14007KT 10SM CLR 17/13 A2999 RMK AO2
KMCC 100915Z AUTO 14007KT 10SM CLR 17/13 A2999 RMK AO2
KMCC 100855Z AUTO 14008KT 10SM CLR 17/13 A2999 RMK AO2
KMCC 100835Z AUTO 14008KT 10SM CLR 18/13 A2999 RMK AO2
KMCC 100815Z AUTO 16008KT 10SM CLR 18/13 A2998 RMK AO2
KMCC 100755Z AUTO 15008KT 10SM CLR 18/13 A2998 RMK AO2
KMCC 100735Z AUTO 16008KT 10SM CLR 18/12 A2998 RMK AO2
KMCC 100715Z AUTO 15008KT 10SM CLR 18/12 A2998 RMK AO2
KMCC 100655Z AUTO 16008KT 10SM CLR 19/12 A2998 RMK AO2
KMCC 100635Z AUTO 16008G13KT 10SM CLR 19/12 A2998 RMK AO2
KMCC 100615Z AUTO 19011KT 10SM CLR 19/12 A2997 RMK AO2
KMCC 100555Z AUTO 19011KT 10SM CLR 20/12 A2997 RMK AO2
KMCC 100535Z AUTO 20010KT 10SM CLR 21/12 A2996 RMK AO2
KMCC 100515Z AUTO 19012KT 10SM CLR 21/12 A2995 RMK AO2
KMCC 100455Z AUTO 21012KT 10SM CLR 22/11 A2995 RMK AO2
KMCC 100435Z AUTO 19009KT 10SM CLR 22/11 A2994 RMK AO2
KMCC 100415Z AUTO 21008G14KT 10SM CLR 23/11 A2993 RMK AO2
KMCC 100355Z AUTO 19012G19KT 10SM CLR 23/10 A2992 RMK AO2
KMCC 100335Z AUTO 20013KT 10SM CLR 24/10 A2991 RMK AO2
KMCC 100315Z AUTO 19014KT 10SM CLR 25/09 A2991 RMK AO2
KMCC 100255Z AUTO 19014KT 10SM CLR 26/09 A2990 RMK AO2
KMCC 100235Z AUTO 10SM CLR 27/08 A2990 RMK AO2
KMCC 100215Z AUTO 19012KT 10SM CLR 28/08 A2989 RMK AO2
KMCC 100155Z AUTO 19013KT 10SM CLR 29/09 A2989 RMK AO2
KMCC 100135Z AUTO 21015KT 10SM CLR 29/08 A2988 RMK AO2
KMCC 100115Z AUTO 21012KT 10SM CLR 30/10 A2988 RMK AO2
KMCC 100055Z AUTO 21015KT 10SM CLR 30/09 A2988 RMK AO2
KMCC 100035Z AUTO 21013KT 10SM CLR 31/09 A2988 RMK AO2
KMCC 100015Z AUTO 19012KT 10SM CLR 32/09 A2988 RMK AO2
KMCC 092355Z AUTO 21012KT 10SM CLR 32/07 A2988 RMK AO2
KMCC 092335Z AUTO 20010G15KT 10SM CLR 32/05 A2988 RMK AO2
KMCC 092315Z AUTO 18012KT 10SM CLR 32/07 A2988 RMK AO2
KMCC 092255Z AUTO 19010G16KT 10SM CLR 32/07 A2989 RMK AO2
KMCC 092235Z AUTO 21012KT 10SM CLR 32/06 A2989 RMK AO2
KMCC 092215Z AUTO 22011KT 10SM CLR 32/07 A2990 RMK AO2
KMCC 092155Z AUTO VRB06G14KT 10SM CLR 32/07 A2990 RMK AO2
KMCC 092135Z AUTO 17007G16KT 150V210 10SM CLR 32/09 A2990 RMK AO2
KMCC 092115Z AUTO 21010G21KT 10SM CLR 31/09 A2991 RMK AO2
KMCC 092055Z AUTO 19008G16KT 160V220 10SM CLR 31/10 A2991 RMK AO2
KMCC 092035Z AUTO 19007KT 10SM CLR 29/10 A2992 RMK AO2
KMCC 092015Z AUTO 17009KT 10SM CLR 30/11 A2992 RMK AO2
KMCC 091955Z AUTO 17008G14KT 10SM CLR 28/12 A2993 RMK AO2
KMCC 091935Z AUTO 18007G13KT 140V200 10SM CLR 28/12 A2993 RMK AO2
KMCC 091915Z AUTO 20007KT 10SM CLR 27/13 A2994 RMK AO2
KMCC 091855Z AUTO 19011KT 10SM CLR 26/13 A2994 RMK AO2
KMCC 091835Z AUTO 20010KT 10SM CLR 26/13 A2994 RMK AO2
KMCC 091815Z AUTO 20011KT 10SM CLR 25/13 A2994 RMK AO2
KMCC 091755Z AUTO 15011KT 10SM CLR 24/13 A2994 RMK AO2
KMCC 091735Z AUTO 15012KT 10SM CLR 23/13 A2994 RMK AO2
KMCC 091715Z AUTO 17011KT 10SM CLR 23/13 A2994 RMK AO2
KMCC 091655Z AUTO 14009G15KT 10SM CLR 22/14 A2994 RMK AO2
KMCC 091635Z AUTO 17009KT 10SM CLR 21/13 A2995 RMK AO2
KMCC 091615Z AUTO 16010KT 10SM CLR 20/13 A2995 RMK AO2
KMCC 091555Z AUTO 15010KT 10SM CLR 19/13 A2995 RMK AO2
KMCC 091535Z AUTO 15010KT 10SM CLR 20/13 A2994 RMK AO2
KMCC 091515Z AUTO 16009G15KT 10SM CLR 19/13 A2994 RMK AO2
KMCC 091455Z AUTO 16010G16KT 10SM CLR 19/13 A2994 RMK AO2
KMCC 091435Z AUTO 16012KT 10SM CLR 18/13 A2993 RMK AO2
KMCC 091415Z AUTO 15010KT 10SM CLR 18/14 A2993 RMK AO2
KMCC 091355Z AUTO 15011KT 10SM CLR 18/14 A2992 RMK AO2
KMCC 091335Z AUTO 15011KT 10SM FEW120 18/14 A2992 RMK AO2
KMCC 091315Z AUTO 15009KT 10SM CLR 18/14 A2992 RMK AO2
KMCC 091255Z AUTO 15008KT 10SM FEW055 18/14 A2991 RMK AO2
KMCC 091235Z AUTO 15009KT 10SM SCT055 18/14 A2990 RMK AO2
KMCC 091215Z AUTO 15009KT 10SM FEW055 18/14 A2990 RMK AO2
KMCC 091155Z AUTO 15008KT 10SM FEW055 18/14 A2990 RMK AO2
KMCC 091135Z AUTO 15009KT 10SM FEW055 19/13 A2990 RMK AO2
KMCC 091115Z AUTO 15009KT 10SM FEW050 19/13 A2990 RMK AO2
KMCC 091055Z AUTO 16009KT 10SM FEW055 19/13 A2989 RMK AO2
KMCC 091035Z AUTO 16011KT 10SM FEW050 19/13 A2989 RMK AO2
KMCC 091015Z AUTO 15011KT 10SM BKN050 19/13 A2989 RMK AO2
KMCC 090955Z AUTO 15011KT 10SM SCT050 19/13 A2989 RMK AO2
KMCC 090935Z AUTO 15010KT 10SM CLR 19/13 A2989 RMK AO2
KMCC 090915Z AUTO 15011KT 10SM FEW050 19/13 A2989 RMK AO2
KMCC 090855Z AUTO 15011KT 10SM SCT050 20/13 A2990 RMK AO2
KMCC 090835Z AUTO 14009KT 10SM BKN050 20/12 A2989 RMK AO2
KMCC 090815Z AUTO 17009KT 10SM SCT050 20/12 A2990 RMK AO2
KMCC 090755Z AUTO 16010KT 10SM SCT050 21/12 A2990 RMK AO2
KMCC 090735Z AUTO 15010KT 10SM BKN055 21/12 A2990 RMK AO2
KMCC 090715Z AUTO 14009KT 10SM FEW060 21/12 A2990 RMK AO2
KMCC 090655Z AUTO 15010KT 10SM CLR 21/11 A2989 RMK AO2
KMCC 090635Z AUTO 15009KT 10SM CLR 22/11 A2989 RMK AO2
KMCC 090615Z AUTO 16007G12KT 10SM CLR 22/11 A2989 RMK AO2
KMCC 090555Z AUTO 16009KT 10SM CLR 23/11 A2989 RMK AO2
KMCC 090535Z AUTO 17010KT 10SM CLR 23/11 A2989 RMK AO2
KMCC 090515Z AUTO 17009KT 10SM 23/11 A2989 RMK AO2
KMCC 090455Z AUTO 19011KT 10SM 24/11 A2989 RMK AO2
KMCC 090435Z AUTO 18011KT 10SM CLR 24/11 A2988 RMK AO2
KMCC 090415Z AUTO 17010KT 10SM CLR 25/10 A2988 RMK AO2
KMCC 090355Z AUTO 18009KT 10SM CLR 26/10 A2988 RMK AO2
KMCC 090335Z AUTO 19009G15KT 10SM CLR 26/10 A2987 RMK AO2
KMCC 090315Z AUTO 18008KT 10SM CLR 27/10 A2987 RMK AO2
KMCC 090255Z AUTO 18010KT 10SM CLR 28/10 A2987 RMK AO2